Hauptseite
METAR-TAF:

METAR-TAF

Flughäfen :

Caracas, Venezuela

Flughafen Caracas

Breite: 10-36N, Länge: 066-59W, Höhe: 43 m

Beobachtung

Neuester Wetterbericht von vor 1 Stunde und 28 Minuten, um 15:00 UTC
Wind 5 kt aus Nordost
Temperatur 31°C
Luftfeuchtigkeit 63%
Luftdruck 1013 hPa
Sichtweite 10 km oder mehr
Leicht bewölkt in der Höhe von 1600 ft

METAR: SVMI 181500Z 05005KT 9999 FEW016 31/23 Q1013 NOSIG

Zeit: 12:28 (16:28 UTC)

Prognose

Neuester Wetterbericht von vor 6 Stunden und 28 Minuten, um 10:00 UTC
Gültige Prognose vom 18 um 12 UTC bis 19 um 12 UTC
Wind 10 kt aus Ost/Nordost
Sichtweite 10 km oder mehr
Leicht bewölkt in der Höhe von 1600 ft
Übergehend zu
vom 18 um 22 UTC bis 19 um 02 UTC
Aufgelockert bewölkt in der Höhe von 2000 ft

TAF: SVMI 181000Z 1812/1912 07010KT 9999 FEW016 TX32/18Z TN24/09Z BECMG 1822/1902 SCT020

Wetterbeobachtungen und Prognosen von mehr als 4000 Flughäfen (METAR und TAF Bericht).

Die verfügbaren Stationen werden durch gelbe und rote Markierungen auf der Karte dargestellt.

Führen Sie die Maus auf sie, um den Namen der Station zu sehen.

Darauf klicken, um die Beobachtung von Wetterbeobachtungen und Prognosen zu sehen.

Um die Karte zu ändern : klicken Sie auf den grünen Tasten mit einem schwarzen Kreuz Zum Vergrößern, auf den grünen Button mit einem Gedankenstrich zu verkleinern, oder auf die grünen Pfeile für benachbarte Karten.


METAR-TAF: